sensor_id;sensor_type;location;lat;lon;timestamp;temperature;humidity
678;DHT22;321;48.814;9.132;2022-11-20T00:01:11;8.30;99.90
678;DHT22;321;48.814;9.132;2022-11-20T00:03:38;8.30;99.90
678;DHT22;321;48.814;9.132;2022-11-20T00:06:05;8.40;99.90
678;DHT22;321;48.814;9.132;2022-11-20T00:08:31;8.40;99.90
678;DHT22;321;48.814;9.132;2022-11-20T00:10:57;8.20;99.90
678;DHT22;321;48.814;9.132;2022-11-20T00:13:23;8.30;99.90
678;DHT22;321;48.814;9.132;2022-11-20T00:15:48;8.10;99.90
678;DHT22;321;48.814;9.132;2022-11-20T00:18:14;8.20;99.90
678;DHT22;321;48.814;9.132;2022-11-20T00:20:40;8.30;99.90
678;DHT22;321;48.814;9.132;2022-11-20T00:23:05;8.30;99.90
678;DHT22;321;48.814;9.132;2022-11-20T00:25:34;8.40;99.90
678;DHT22;321;48.814;9.132;2022-11-20T00:28:00;8.50;99.90
678;DHT22;321;48.814;9.132;2022-11-20T00:30:25;8.40;99.90
678;DHT22;321;48.814;9.132;2022-11-20T00:32:51;8.40;99.90
678;DHT22;321;48.814;9.132;2022-11-20T00:35:16;8.40;99.90
678;DHT22;321;48.814;9.132;2022-11-20T00:37:42;8.30;99.90
678;DHT22;321;48.814;9.132;2022-11-20T00:40:08;8.40;99.90
678;DHT22;321;48.814;9.132;2022-11-20T00:42:33;8.20;99.90
678;DHT22;321;48.814;9.132;2022-11-20T00:45:01;8.30;99.90
678;DHT22;321;48.814;9.132;2022-11-20T00:47:27;8.40;99.90
678;DHT22;321;48.814;9.132;2022-11-20T00:49:52;8.40;99.90
678;DHT22;321;48.814;9.132;2022-11-20T00:52:18;8.30;99.90
678;DHT22;321;48.814;9.132;2022-11-20T00:54:43;8.20;99.90
678;DHT22;321;48.814;9.132;2022-11-20T00:57:09;8.10;99.90
678;DHT22;321;48.814;9.132;2022-11-20T00:59:34;8.10;99.90
678;DHT22;321;48.814;9.132;2022-11-20T01:02:00;8.10;99.90
678;DHT22;321;48.814;9.132;2022-11-20T01:04:25;8.10;99.90
678;DHT22;321;48.814;9.132;2022-11-20T01:06:51;8.20;99.90
678;DHT22;321;48.814;9.132;2022-11-20T01:09:16;8.20;99.90
678;DHT22;321;48.814;9.132;2022-11-20T01:11:43;8.40;99.90
678;DHT22;321;48.814;9.132;2022-11-20T01:14:15;8.40;99.90
678;DHT22;321;48.814;9.132;2022-11-20T01:16:43;8.30;99.90
678;DHT22;321;48.814;9.132;2022-11-20T01:19:20;8.40;99.90
678;DHT22;321;48.814;9.132;2022-11-20T01:21:49;8.30;99.90
678;DHT22;321;48.814;9.132;2022-11-20T01:24:17;8.30;99.90
678;DHT22;321;48.814;9.132;2022-11-20T01:26:44;8.40;99.90
678;DHT22;321;48.814;9.132;2022-11-20T01:29:15;8.30;99.90
678;DHT22;321;48.814;9.132;2022-11-20T01:31:42;8.20;99.90
678;DHT22;321;48.814;9.132;2022-11-20T01:34:14;8.10;99.90
678;DHT22;321;48.814;9.132;2022-11-20T01:36:41;8.00;99.90
678;DHT22;321;48.814;9.132;2022-11-20T01:39:18;8.00;99.90
678;DHT22;321;48.814;9.132;2022-11-20T01:41:44;8.10;99.90
678;DHT22;321;48.814;9.132;2022-11-20T01:44:55;8.10;99.90
678;DHT22;321;48.814;9.132;2022-11-20T01:47:36;8.10;99.90
678;DHT22;321;48.814;9.132;2022-11-20T01:52:42;8.20;99.90
678;DHT22;321;48.814;9.132;2022-11-20T01:55:19;8.10;99.90
678;DHT22;321;48.814;9.132;2022-11-20T01:57:48;8.20;99.90
678;DHT22;321;48.814;9.132;2022-11-20T02:00:16;8.20;99.90
678;DHT22;321;48.814;9.132;2022-11-20T02:02:46;8.10;99.90
678;DHT22;321;48.814;9.132;2022-11-20T02:05:45;7.90;99.90
678;DHT22;321;48.814;9.132;2022-11-20T02:08:12;8.00;99.90
678;DHT22;321;48.814;9.132;2022-11-20T02:10:37;7.80;99.90
678;DHT22;321;48.814;9.132;2022-11-20T02:13:03;7.90;99.90
678;DHT22;321;48.814;9.132;2022-11-20T02:15:48;8.00;99.90
678;DHT22;321;48.814;9.132;2022-11-20T02:18:16;8.10;99.90
678;DHT22;321;48.814;9.132;2022-11-20T02:20:44;8.10;99.90
678;DHT22;321;48.814;9.132;2022-11-20T02:23:32;8.10;99.90
678;DHT22;321;48.814;9.132;2022-11-20T02:26:01;8.20;99.90
678;DHT22;321;48.814;9.132;2022-11-20T02:28:28;8.20;99.90
678;DHT22;321;48.814;9.132;2022-11-20T02:30:54;8.20;99.90
678;DHT22;321;48.814;9.132;2022-11-20T02:33:19;8.10;99.90
678;DHT22;321;48.814;9.132;2022-11-20T02:35:46;8.20;99.90
678;DHT22;321;48.814;9.132;2022-11-20T02:38:13;8.00;99.90
678;DHT22;321;48.814;9.132;2022-11-20T02:40:38;7.90;99.90
678;DHT22;321;48.814;9.132;2022-11-20T02:43:04;7.90;99.90
678;DHT22;321;48.814;9.132;2022-11-20T02:45:30;7.90;99.90
678;DHT22;321;48.814;9.132;2022-11-20T02:47:55;7.80;99.90
678;DHT22;321;48.814;9.132;2022-11-20T02:50:21;7.90;99.90
678;DHT22;321;48.814;9.132;2022-11-20T02:52:46;7.90;99.90
678;DHT22;321;48.814;9.132;2022-11-20T02:55:12;7.80;99.90
678;DHT22;321;48.814;9.132;2022-11-20T02:57:37;7.90;99.90
678;DHT22;321;48.814;9.132;2022-11-20T03:00:06;7.70;99.90
678;DHT22;321;48.814;9.132;2022-11-20T03:02:33;7.80;99.90
678;DHT22;321;48.814;9.132;2022-11-20T03:04:58;7.60;99.90
678;DHT22;321;48.814;9.132;2022-11-20T03:07:25;7.60;99.90
678;DHT22;321;48.814;9.132;2022-11-20T03:09:50;7.70;99.90
678;DHT22;321;48.814;9.132;2022-11-20T03:12:16;7.80;99.90
678;DHT22;321;48.814;9.132;2022-11-20T03:14:42;7.80;99.90
678;DHT22;321;48.814;9.132;2022-11-20T03:17:07;7.80;99.90
678;DHT22;321;48.814;9.132;2022-11-20T03:19:33;7.80;99.90
678;DHT22;321;48.814;9.132;2022-11-20T03:21:59;7.80;99.90
678;DHT22;321;48.814;9.132;2022-11-20T03:24:25;7.70;99.90
678;DHT22;321;48.814;9.132;2022-11-20T03:26:51;7.70;99.90
678;DHT22;321;48.814;9.132;2022-11-20T03:29:16;7.70;99.90
678;DHT22;321;48.814;9.132;2022-11-20T03:31:42;7.70;99.90
678;DHT22;321;48.814;9.132;2022-11-20T03:34:09;7.60;99.90
678;DHT22;321;48.814;9.132;2022-11-20T03:36:40;7.50;99.90
678;DHT22;321;48.814;9.132;2022-11-20T03:39:06;7.40;99.90
678;DHT22;321;48.814;9.132;2022-11-20T03:41:36;7.40;99.90
678;DHT22;321;48.814;9.132;2022-11-20T03:44:05;7.40;99.90
678;DHT22;321;48.814;9.132;2022-11-20T03:46:31;7.40;99.90
678;DHT22;321;48.814;9.132;2022-11-20T03:48:57;7.30;99.90
678;DHT22;321;48.814;9.132;2022-11-20T03:51:31;7.30;99.90
678;DHT22;321;48.814;9.132;2022-11-20T03:53:59;7.40;99.90
678;DHT22;321;48.814;9.132;2022-11-20T03:56:30;7.40;99.90
678;DHT22;321;48.814;9.132;2022-11-20T03:58:57;7.40;99.90
678;DHT22;321;48.814;9.132;2022-11-20T04:01:25;7.40;99.90
678;DHT22;321;48.814;9.132;2022-11-20T04:03:55;7.40;99.90
678;DHT22;321;48.814;9.132;2022-11-20T04:06:24;7.40;99.90
678;DHT22;321;48.814;9.132;2022-11-20T04:08:50;7.30;99.90
678;DHT22;321;48.814;9.132;2022-11-20T04:11:17;7.10;99.90
678;DHT22;321;48.814;9.132;2022-11-20T04:13:47;7.20;99.90
678;DHT22;321;48.814;9.132;2022-11-20T04:16:12;7.10;99.90
678;DHT22;321;48.814;9.132;2022-11-20T04:18:38;7.10;99.90
678;DHT22;321;48.814;9.132;2022-11-20T04:21:05;7.30;99.90
678;DHT22;321;48.814;9.132;2022-11-20T04:23:31;7.30;99.90
678;DHT22;321;48.814;9.132;2022-11-20T04:26:10;7.10;99.90
678;DHT22;321;48.814;9.132;2022-11-20T04:28:37;7.10;99.90
678;DHT22;321;48.814;9.132;2022-11-20T04:31:08;6.70;99.90
678;DHT22;321;48.814;9.132;2022-11-20T04:33:35;6.90;99.90
678;DHT22;321;48.814;9.132;2022-11-20T04:36:15;6.90;99.90
678;DHT22;321;48.814;9.132;2022-11-20T04:38:41;7.00;99.90
678;DHT22;321;48.814;9.132;2022-11-20T04:41:14;7.30;99.90
678;DHT22;321;48.814;9.132;2022-11-20T04:43:40;7.30;99.90
678;DHT22;321;48.814;9.132;2022-11-20T04:46:06;7.40;99.90
678;DHT22;321;48.814;9.132;2022-11-20T04:48:31;7.60;99.90
678;DHT22;321;48.814;9.132;2022-11-20T04:50:57;7.60;99.90
678;DHT22;321;48.814;9.132;2022-11-20T04:53:23;7.60;99.90
678;DHT22;321;48.814;9.132;2022-11-20T04:55:49;7.70;99.90
678;DHT22;321;48.814;9.132;2022-11-20T04:58:15;7.50;99.90
678;DHT22;321;48.814;9.132;2022-11-20T05:00:41;7.50;99.90
678;DHT22;321;48.814;9.132;2022-11-20T05:03:06;7.40;99.90
678;DHT22;321;48.814;9.132;2022-11-20T05:05:34;7.50;99.90
678;DHT22;321;48.814;9.132;2022-11-20T05:08:00;7.60;99.90
678;DHT22;321;48.814;9.132;2022-11-20T05:10:26;7.70;99.90
678;DHT22;321;48.814;9.132;2022-11-20T05:12:51;7.80;99.90
678;DHT22;321;48.814;9.132;2022-11-20T05:15:17;7.80;99.90
678;DHT22;321;48.814;9.132;2022-11-20T05:17:50;7.80;99.90
678;DHT22;321;48.814;9.132;2022-11-20T05:20:16;8.00;99.90
678;DHT22;321;48.814;9.132;2022-11-20T05:22:42;7.90;99.90
678;DHT22;321;48.814;9.132;2022-11-20T05:25:08;7.90;99.90
678;DHT22;321;48.814;9.132;2022-11-20T05:27:34;8.10;99.90
678;DHT22;321;48.814;9.132;2022-11-20T05:29:59;8.10;99.90
678;DHT22;321;48.814;9.132;2022-11-20T05:32:26;8.00;99.90
678;DHT22;321;48.814;9.132;2022-11-20T05:34:52;8.00;99.90
678;DHT22;321;48.814;9.132;2022-11-20T05:37:17;8.10;99.90
678;DHT22;321;48.814;9.132;2022-11-20T05:39:43;8.20;99.90
678;DHT22;321;48.814;9.132;2022-11-20T05:42:08;8.30;99.90
678;DHT22;321;48.814;9.132;2022-11-20T05:44:53;8.20;99.90
678;DHT22;321;48.814;9.132;2022-11-20T05:47:18;8.20;99.90
678;DHT22;321;48.814;9.132;2022-11-20T05:49:44;8.20;99.90
678;DHT22;321;48.814;9.132;2022-11-20T05:52:10;8.20;99.90
678;DHT22;321;48.814;9.132;2022-11-20T05:54:35;8.20;99.90
678;DHT22;321;48.814;9.132;2022-11-20T05:57:01;8.30;99.90
678;DHT22;321;48.814;9.132;2022-11-20T05:59:26;8.30;99.90
678;DHT22;321;48.814;9.132;2022-11-20T06:01:52;8.40;99.90
678;DHT22;321;48.814;9.132;2022-11-20T06:04:17;8.40;99.90
678;DHT22;321;48.814;9.132;2022-11-20T06:06:43;8.50;99.90
678;DHT22;321;48.814;9.132;2022-11-20T06:09:08;8.30;99.90
678;DHT22;321;48.814;9.132;2022-11-20T06:11:34;8.20;99.90
678;DHT22;321;48.814;9.132;2022-11-20T06:13:59;8.30;99.90
678;DHT22;321;48.814;9.132;2022-11-20T06:16:25;8.40;99.90
678;DHT22;321;48.814;9.132;2022-11-20T06:18:51;8.30;99.90
678;DHT22;321;48.814;9.132;2022-11-20T06:21:18;8.30;99.90
678;DHT22;321;48.814;9.132;2022-11-20T06:23:44;8.30;99.90
678;DHT22;321;48.814;9.132;2022-11-20T06:26:12;8.30;99.90
678;DHT22;321;48.814;9.132;2022-11-20T06:28:39;8.30;99.90
678;DHT22;321;48.814;9.132;2022-11-20T06:31:06;8.20;99.90
678;DHT22;321;48.814;9.132;2022-11-20T06:33:32;8.20;99.90
678;DHT22;321;48.814;9.132;2022-11-20T06:35:58;8.30;99.90
678;DHT22;321;48.814;9.132;2022-11-20T06:38:25;8.20;99.90
678;DHT22;321;48.814;9.132;2022-11-20T06:40:51;8.00;99.90
678;DHT22;321;48.814;9.132;2022-11-20T06:43:17;7.90;99.90
678;DHT22;321;48.814;9.132;2022-11-20T06:45:42;7.90;99.90
678;DHT22;321;48.814;9.132;2022-11-20T06:48:08;7.90;99.90
678;DHT22;321;48.814;9.132;2022-11-20T06:50:36;7.80;99.90
678;DHT22;321;48.814;9.132;2022-11-20T06:53:02;7.80;99.90
678;DHT22;321;48.814;9.132;2022-11-20T06:55:28;7.90;99.90
678;DHT22;321;48.814;9.132;2022-11-20T06:57:54;7.90;99.90
678;DHT22;321;48.814;9.132;2022-11-20T07:00:20;7.80;99.90
678;DHT22;321;48.814;9.132;2022-11-20T07:02:45;7.90;99.90
678;DHT22;321;48.814;9.132;2022-11-20T07:05:11;7.90;99.90
678;DHT22;321;48.814;9.132;2022-11-20T07:07:36;7.90;99.90
678;DHT22;321;48.814;9.132;2022-11-20T07:10:04;7.90;99.90
678;DHT22;321;48.814;9.132;2022-11-20T07:12:30;7.90;99.90
678;DHT22;321;48.814;9.132;2022-11-20T07:14:56;8.00;99.90
678;DHT22;321;48.814;9.132;2022-11-20T07:17:21;7.90;99.90
678;DHT22;321;48.814;9.132;2022-11-20T07:19:47;8.00;99.90
678;DHT22;321;48.814;9.132;2022-11-20T07:22:12;8.00;99.90
678;DHT22;321;48.814;9.132;2022-11-20T07:24:39;8.50;99.90
678;DHT22;321;48.814;9.132;2022-11-20T07:27:04;7.80;99.90
678;DHT22;321;48.814;9.132;2022-11-20T07:29:30;7.80;99.90
678;DHT22;321;48.814;9.132;2022-11-20T07:31:56;8.00;99.90
678;DHT22;321;48.814;9.132;2022-11-20T07:34:22;8.00;99.90
678;DHT22;321;48.814;9.132;2022-11-20T07:36:48;7.90;99.90
678;DHT22;321;48.814;9.132;2022-11-20T07:39:13;7.90;99.90
678;DHT22;321;48.814;9.132;2022-11-20T07:41:39;7.90;99.90
678;DHT22;321;48.814;9.132;2022-11-20T07:44:04;8.00;99.90
678;DHT22;321;48.814;9.132;2022-11-20T07:46:30;8.20;99.90
678;DHT22;321;48.814;9.132;2022-11-20T07:48:56;8.20;99.90
678;DHT22;321;48.814;9.132;2022-11-20T07:51:21;8.30;99.90
678;DHT22;321;48.814;9.132;2022-11-20T07:53:47;8.30;99.90
678;DHT22;321;48.814;9.132;2022-11-20T07:56:12;8.90;99.90
678;DHT22;321;48.814;9.132;2022-11-20T07:58:39;8.50;99.90
678;DHT22;321;48.814;9.132;2022-11-20T08:01:08;8.40;99.90
678;DHT22;321;48.814;9.132;2022-11-20T08:03:34;8.40;99.90
678;DHT22;321;48.814;9.132;2022-11-20T08:06:03;8.40;99.90
678;DHT22;321;48.814;9.132;2022-11-20T08:08:29;8.40;99.90
678;DHT22;321;48.814;9.132;2022-11-20T08:10:57;8.60;99.90
678;DHT22;321;48.814;9.132;2022-11-20T08:13:42;8.60;99.90
678;DHT22;321;48.814;9.132;2022-11-20T08:16:27;8.60;99.90
678;DHT22;321;48.814;9.132;2022-11-20T08:18:53;8.80;99.90
678;DHT22;321;48.814;9.132;2022-11-20T08:21:19;8.90;99.90
678;DHT22;321;48.814;9.132;2022-11-20T08:23:44;8.90;99.90
678;DHT22;321;48.814;9.132;2022-11-20T08:26:10;9.00;99.90
678;DHT22;321;48.814;9.132;2022-11-20T08:28:35;9.00;99.90
678;DHT22;321;48.814;9.132;2022-11-20T08:31:02;9.00;99.90
678;DHT22;321;48.814;9.132;2022-11-20T08:33:28;9.00;99.90
678;DHT22;321;48.814;9.132;2022-11-20T08:36:02;9.00;99.90
678;DHT22;321;48.814;9.132;2022-11-20T08:38:29;9.10;99.90
678;DHT22;321;48.814;9.132;2022-11-20T08:41:02;9.30;99.90
678;DHT22;321;48.814;9.132;2022-11-20T08:43:47;9.50;99.90
678;DHT22;321;48.814;9.132;2022-11-20T08:46:12;9.50;99.90
678;DHT22;321;48.814;9.132;2022-11-20T08:48:38;9.60;99.90
678;DHT22;321;48.814;9.132;2022-11-20T08:51:04;9.80;99.90
678;DHT22;321;48.814;9.132;2022-11-20T08:53:30;10.00;99.90
678;DHT22;321;48.814;9.132;2022-11-20T08:55:56;9.90;99.90
678;DHT22;321;48.814;9.132;2022-11-20T08:58:22;9.80;99.90
678;DHT22;321;48.814;9.132;2022-11-20T09:00:48;9.80;99.90
678;DHT22;321;48.814;9.132;2022-11-20T09:03:13;9.90;99.90
678;DHT22;321;48.814;9.132;2022-11-20T09:05:39;9.80;99.90
678;DHT22;321;48.814;9.132;2022-11-20T09:08:04;9.50;99.90
678;DHT22;321;48.814;9.132;2022-11-20T09:10:30;9.50;99.90
678;DHT22;321;48.814;9.132;2022-11-20T09:12:56;9.60;99.90
678;DHT22;321;48.814;9.132;2022-11-20T09:15:22;9.70;99.90
678;DHT22;321;48.814;9.132;2022-11-20T09:17:59;9.90;99.90
678;DHT22;321;48.814;9.132;2022-11-20T09:20:26;10.00;99.90
678;DHT22;321;48.814;9.132;2022-11-20T09:22:52;10.00;99.90
678;DHT22;321;48.814;9.132;2022-11-20T09:25:18;9.90;99.90
678;DHT22;321;48.814;9.132;2022-11-20T09:27:44;9.90;99.90
678;DHT22;321;48.814;9.132;2022-11-20T09:30:12;9.80;99.90
678;DHT22;321;48.814;9.132;2022-11-20T09:32:39;9.50;99.90
678;DHT22;321;48.814;9.132;2022-11-20T09:35:04;9.60;99.90
678;DHT22;321;48.814;9.132;2022-11-20T09:37:30;9.30;99.90
678;DHT22;321;48.814;9.132;2022-11-20T09:39:56;9.60;99.90
678;DHT22;321;48.814;9.132;2022-11-20T09:42:37;9.80;99.90
678;DHT22;321;48.814;9.132;2022-11-20T09:45:32;9.60;99.90
678;DHT22;321;48.814;9.132;2022-11-20T09:48:16;9.60;99.90
678;DHT22;321;48.814;9.132;2022-11-20T09:51:32;9.80;99.90
678;DHT22;321;48.814;9.132;2022-11-20T09:56:57;9.80;99.90
678;DHT22;321;48.814;9.132;2022-11-20T09:59:41;9.80;99.90
678;DHT22;321;48.814;9.132;2022-11-20T10:05:15;9.70;99.90
678;DHT22;321;48.814;9.132;2022-11-20T10:08:04;9.70;99.90
678;DHT22;321;48.814;9.132;2022-11-20T10:10:42;9.40;99.90
678;DHT22;321;48.814;9.132;2022-11-20T10:13:24;9.50;99.90
678;DHT22;321;48.814;9.132;2022-11-20T10:24:04;9.30;99.90
678;DHT22;321;48.814;9.132;2022-11-20T10:26:43;9.40;99.90
678;DHT22;321;48.814;9.132;2022-11-20T10:29:13;9.40;99.90
678;DHT22;321;48.814;9.132;2022-11-20T10:31:51;9.40;99.90
678;DHT22;321;48.814;9.132;2022-11-20T10:34:25;9.40;99.90
678;DHT22;321;48.814;9.132;2022-11-20T10:36:56;9.30;99.90
678;DHT22;321;48.814;9.132;2022-11-20T10:39:38;9.20;99.90
678;DHT22;321;48.814;9.132;2022-11-20T10:42:10;9.30;99.90
678;DHT22;321;48.814;9.132;2022-11-20T10:44:38;9.10;99.90
678;DHT22;321;48.814;9.132;2022-11-20T10:47:24;9.10;99.90
678;DHT22;321;48.814;9.132;2022-11-20T10:49:53;9.00;99.90
678;DHT22;321;48.814;9.132;2022-11-20T10:55:10;9.00;99.90
678;DHT22;321;48.814;9.132;2022-11-20T11:00:20;9.40;99.90
678;DHT22;321;48.814;9.132;2022-11-20T11:02:48;9.60;99.90
678;DHT22;321;48.814;9.132;2022-11-20T11:08:00;9.90;99.90
678;DHT22;321;48.814;9.132;2022-11-20T11:10:48;10.00;99.90
678;DHT22;321;48.814;9.132;2022-11-20T11:13:24;10.00;99.90
678;DHT22;321;48.814;9.132;2022-11-20T11:15:51;9.90;99.90
678;DHT22;321;48.814;9.132;2022-11-20T11:18:29;9.90;99.90
678;DHT22;321;48.814;9.132;2022-11-20T11:20:56;10.00;99.90
678;DHT22;321;48.814;9.132;2022-11-20T11:23:29;10.00;99.90
678;DHT22;321;48.814;9.132;2022-11-20T11:25:57;10.00;99.90
678;DHT22;321;48.814;9.132;2022-11-20T11:28:25;10.00;99.90
678;DHT22;321;48.814;9.132;2022-11-20T11:30:53;10.30;99.90
678;DHT22;321;48.814;9.132;2022-11-20T11:33:23;10.60;99.90
678;DHT22;321;48.814;9.132;2022-11-20T11:35:52;10.80;99.90
678;DHT22;321;48.814;9.132;2022-11-20T11:38:39;11.00;99.90
678;DHT22;321;48.814;9.132;2022-11-20T11:41:09;11.20;99.90
678;DHT22;321;48.814;9.132;2022-11-20T11:43:36;11.50;99.90
678;DHT22;321;48.814;9.132;2022-11-20T11:46:35;11.70;99.90
678;DHT22;321;48.814;9.132;2022-11-20T11:49:17;11.70;99.90
678;DHT22;321;48.814;9.132;2022-11-20T11:57:00;11.90;99.90
678;DHT22;321;48.814;9.132;2022-11-20T11:59:41;11.70;99.90
678;DHT22;321;48.814;9.132;2022-11-20T12:02:22;11.40;99.90
678;DHT22;321;48.814;9.132;2022-11-20T12:04:56;11.50;99.90
678;DHT22;321;48.814;9.132;2022-11-20T12:07:43;11.70;99.90
678;DHT22;321;48.814;9.132;2022-11-20T12:15:44;11.40;99.90
678;DHT22;321;48.814;9.132;2022-11-20T12:18:18;11.10;99.90
678;DHT22;321;48.814;9.132;2022-11-20T12:34:43;10.10;99.90
678;DHT22;321;48.814;9.132;2022-11-20T12:42:51;10.00;99.90
678;DHT22;321;48.814;9.132;2022-11-20T12:54:40;10.10;99.90
678;DHT22;321;48.814;9.132;2022-11-20T12:57:25;10.20;99.90
678;DHT22;321;48.814;9.132;2022-11-20T13:07:44;10.50;99.90
678;DHT22;321;48.814;9.132;2022-11-20T13:10:21;10.40;99.90
678;DHT22;321;48.814;9.132;2022-11-20T13:12:55;10.50;99.90
678;DHT22;321;48.814;9.132;2022-11-20T13:15:31;10.50;99.90
678;DHT22;321;48.814;9.132;2022-11-20T13:18:03;10.40;99.90
678;DHT22;321;48.814;9.132;2022-11-20T13:20:30;10.60;99.90
678;DHT22;321;48.814;9.132;2022-11-20T13:22:57;10.70;99.90
678;DHT22;321;48.814;9.132;2022-11-20T13:25:31;10.90;99.90
678;DHT22;321;48.814;9.132;2022-11-20T13:27:59;10.80;99.90
678;DHT22;321;48.814;9.132;2022-11-20T13:30:29;10.80;99.90
678;DHT22;321;48.814;9.132;2022-11-20T13:35:31;10.50;99.90
678;DHT22;321;48.814;9.132;2022-11-20T13:38:03;10.30;99.90
678;DHT22;321;48.814;9.132;2022-11-20T13:40:29;10.10;99.90
678;DHT22;321;48.814;9.132;2022-11-20T13:43:01;9.90;99.90
678;DHT22;321;48.814;9.132;2022-11-20T13:45:30;9.80;99.90
678;DHT22;321;48.814;9.132;2022-11-20T13:47:58;9.70;99.90
678;DHT22;321;48.814;9.132;2022-11-20T13:56:46;9.70;99.90
678;DHT22;321;48.814;9.132;2022-11-20T14:02:16;9.60;99.90
678;DHT22;321;48.814;9.132;2022-11-20T14:04:48;9.40;99.90
678;DHT22;321;48.814;9.132;2022-11-20T14:07:16;9.50;99.90
678;DHT22;321;48.814;9.132;2022-11-20T14:09:51;9.50;99.90
678;DHT22;321;48.814;9.132;2022-11-20T14:12:20;9.50;99.90
678;DHT22;321;48.814;9.132;2022-11-20T14:14:51;9.60;99.90
678;DHT22;321;48.814;9.132;2022-11-20T14:17:32;9.60;99.90
678;DHT22;321;48.814;9.132;2022-11-20T14:20:06;9.50;99.90
678;DHT22;321;48.814;9.132;2022-11-20T14:22:32;9.50;99.90
678;DHT22;321;48.814;9.132;2022-11-20T14:27:34;9.40;99.90
678;DHT22;321;48.814;9.132;2022-11-20T14:30:01;9.50;99.90
678;DHT22;321;48.814;9.132;2022-11-20T14:32:29;9.60;99.90
678;DHT22;321;48.814;9.132;2022-11-20T14:35:01;9.50;99.90
678;DHT22;321;48.814;9.132;2022-11-20T14:37:30;9.50;99.90
678;DHT22;321;48.814;9.132;2022-11-20T14:39:57;9.50;99.90
678;DHT22;321;48.814;9.132;2022-11-20T14:42:26;9.50;99.90
678;DHT22;321;48.814;9.132;2022-11-20T14:44:55;9.50;99.90
678;DHT22;321;48.814;9.132;2022-11-20T14:47:24;9.60;99.90
678;DHT22;321;48.814;9.132;2022-11-20T14:49:51;9.50;99.90
678;DHT22;321;48.814;9.132;2022-11-20T14:52:20;9.50;99.90
678;DHT22;321;48.814;9.132;2022-11-20T14:54:48;9.50;99.90
678;DHT22;321;48.814;9.132;2022-11-20T14:57:27;9.50;99.90
678;DHT22;321;48.814;9.132;2022-11-20T15:02:45;9.50;99.90
678;DHT22;321;48.814;9.132;2022-11-20T15:05:11;9.40;99.90
678;DHT22;321;48.814;9.132;2022-11-20T15:07:40;9.30;99.90
678;DHT22;321;48.814;9.132;2022-11-20T15:12:46;9.20;99.90
678;DHT22;321;48.814;9.132;2022-11-20T15:15:16;9.20;99.90
678;DHT22;321;48.814;9.132;2022-11-20T15:17:44;9.00;99.90
678;DHT22;321;48.814;9.132;2022-11-20T15:20:13;8.70;99.90
678;DHT22;321;48.814;9.132;2022-11-20T15:22:39;8.70;99.90
678;DHT22;321;48.814;9.132;2022-11-20T15:25:15;8.70;99.90
678;DHT22;321;48.814;9.132;2022-11-20T15:27:42;8.70;99.90
678;DHT22;321;48.814;9.132;2022-11-20T15:30:19;8.70;99.90
678;DHT22;321;48.814;9.132;2022-11-20T15:32:45;8.70;99.90
678;DHT22;321;48.814;9.132;2022-11-20T15:35:12;8.70;99.90
678;DHT22;321;48.814;9.132;2022-11-20T15:37:38;8.60;99.90
678;DHT22;321;48.814;9.132;2022-11-20T15:40:05;8.60;99.90
678;DHT22;321;48.814;9.132;2022-11-20T15:42:34;8.60;99.90
678;DHT22;321;48.814;9.132;2022-11-20T15:45:00;8.50;99.90
678;DHT22;321;48.814;9.132;2022-11-20T15:47:29;8.40;99.90
678;DHT22;321;48.814;9.132;2022-11-20T15:49:55;8.30;99.90
678;DHT22;321;48.814;9.132;2022-11-20T15:52:21;8.40;99.90
678;DHT22;321;48.814;9.132;2022-11-20T15:54:47;8.30;99.90
678;DHT22;321;48.814;9.132;2022-11-20T15:57:13;8.20;99.90
678;DHT22;321;48.814;9.132;2022-11-20T15:59:39;8.20;99.90
678;DHT22;321;48.814;9.132;2022-11-20T16:02:14;8.20;99.90
678;DHT22;321;48.814;9.132;2022-11-20T16:04:39;8.20;99.90
678;DHT22;321;48.814;9.132;2022-11-20T16:07:05;8.20;99.90
678;DHT22;321;48.814;9.132;2022-11-20T16:09:31;8.20;99.90
678;DHT22;321;48.814;9.132;2022-11-20T16:11:56;8.10;99.90
678;DHT22;321;48.814;9.132;2022-11-20T16:14:25;8.10;99.90
678;DHT22;321;48.814;9.132;2022-11-20T16:17:09;8.10;99.90
678;DHT22;321;48.814;9.132;2022-11-20T16:19:34;8.10;99.90
678;DHT22;321;48.814;9.132;2022-11-20T16:22:00;8.20;99.90
678;DHT22;321;48.814;9.132;2022-11-20T16:24:26;8.20;99.90
678;DHT22;321;48.814;9.132;2022-11-20T16:26:53;8.10;99.90
678;DHT22;321;48.814;9.132;2022-11-20T16:29:19;8.20;99.90
678;DHT22;321;48.814;9.132;2022-11-20T16:31:44;8.30;99.90
678;DHT22;321;48.814;9.132;2022-11-20T16:34:10;8.30;99.90
678;DHT22;321;48.814;9.132;2022-11-20T16:36:36;8.30;99.90
678;DHT22;321;48.814;9.132;2022-11-20T16:39:04;8.50;99.90
678;DHT22;321;48.814;9.132;2022-11-20T16:41:32;8.10;99.90
678;DHT22;321;48.814;9.132;2022-11-20T16:43:59;8.30;99.90
678;DHT22;321;48.814;9.132;2022-11-20T16:46:30;8.30;99.90
678;DHT22;321;48.814;9.132;2022-11-20T16:49:01;8.20;99.90
678;DHT22;321;48.814;9.132;2022-11-20T16:51:28;8.10;99.90
678;DHT22;321;48.814;9.132;2022-11-20T16:53:54;8.10;99.90
678;DHT22;321;48.814;9.132;2022-11-20T16:56:24;8.20;99.90
678;DHT22;321;48.814;9.132;2022-11-20T16:58:52;8.30;99.90
678;DHT22;321;48.814;9.132;2022-11-20T17:01:19;8.40;99.90
678;DHT22;321;48.814;9.132;2022-11-20T17:03:52;8.30;99.90
678;DHT22;321;48.814;9.132;2022-11-20T17:06:20;8.40;99.90
678;DHT22;321;48.814;9.132;2022-11-20T17:08:47;8.50;99.90
678;DHT22;321;48.814;9.132;2022-11-20T17:11:15;8.50;99.90
678;DHT22;321;48.814;9.132;2022-11-20T17:13:42;8.50;99.90
678;DHT22;321;48.814;9.132;2022-11-20T17:16:13;8.60;99.90
678;DHT22;321;48.814;9.132;2022-11-20T17:18:40;8.40;99.90
678;DHT22;321;48.814;9.132;2022-11-20T17:21:06;8.50;99.90
678;DHT22;321;48.814;9.132;2022-11-20T17:23:39;8.50;99.90
678;DHT22;321;48.814;9.132;2022-11-20T17:26:27;8.50;99.90
678;DHT22;321;48.814;9.132;2022-11-20T17:31:19;8.50;99.90
678;DHT22;321;48.814;9.132;2022-11-20T17:33:45;8.30;99.90
678;DHT22;321;48.814;9.132;2022-11-20T17:36:13;8.40;99.90
678;DHT22;321;48.814;9.132;2022-11-20T17:38:39;8.40;99.90
678;DHT22;321;48.814;9.132;2022-11-20T17:41:07;8.60;99.90
678;DHT22;321;48.814;9.132;2022-11-20T17:43:33;8.60;99.90
678;DHT22;321;48.814;9.132;2022-11-20T17:46:06;8.50;99.90
678;DHT22;321;48.814;9.132;2022-11-20T17:48:33;8.50;99.90
678;DHT22;321;48.814;9.132;2022-11-20T17:51:00;8.50;99.90
678;DHT22;321;48.814;9.132;2022-11-20T17:53:27;8.50;99.90
678;DHT22;321;48.814;9.132;2022-11-20T17:55:57;8.60;99.90
678;DHT22;321;48.814;9.132;2022-11-20T17:58:41;8.70;99.90
678;DHT22;321;48.814;9.132;2022-11-20T18:01:08;8.70;99.90
678;DHT22;321;48.814;9.132;2022-11-20T18:03:34;8.80;99.90
678;DHT22;321;48.814;9.132;2022-11-20T18:06:10;8.80;99.90
678;DHT22;321;48.814;9.132;2022-11-20T18:08:36;8.80;99.90
678;DHT22;321;48.814;9.132;2022-11-20T18:11:16;8.80;99.90
678;DHT22;321;48.814;9.132;2022-11-20T18:13:43;8.80;99.90
678;DHT22;321;48.814;9.132;2022-11-20T18:16:29;8.80;99.90
678;DHT22;321;48.814;9.132;2022-11-20T18:18:57;8.80;99.90
678;DHT22;321;48.814;9.132;2022-11-20T18:21:24;8.70;99.90
678;DHT22;321;48.814;9.132;2022-11-20T18:23:50;8.80;99.90
678;DHT22;321;48.814;9.132;2022-11-20T18:26:16;8.90;99.90
678;DHT22;321;48.814;9.132;2022-11-20T18:28:42;8.80;99.90
678;DHT22;321;48.814;9.132;2022-11-20T18:31:09;8.90;99.90
678;DHT22;321;48.814;9.132;2022-11-20T18:33:34;9.00;99.90
678;DHT22;321;48.814;9.132;2022-11-20T18:38:35;9.10;99.90